Walton, Nebraska
Current Conditions -  °F | °C
As of 5:54 PM on Friday 31 Oct 2014 (Local Time) from KLNK Reporting Station
Clear Clear  
Wind Chill: 38°   Ceiling: Unl
Heat Index: 41°   Visibility: 10mi
Dew Point: 19°   Wind: 5mph
Humidity: 41%   Direction: 60°ENE
Pressure: 30.48"   Gusts: NA
Location:  40.8°N, 96.56°W
Report Text: KLNK 312254Z 06004KT 10SM CLR 05/M07 A3048 RMK AO2 SLP333 T00501072
Loading
Personal Weather Stations






























Interactive Weather Map
Tropical Storm Tracking
New forecast layout! Learn more

10-Day Weather Forecast

Advertisements
Track Severe Weather on mobile